Archiv-/Tagesdaten

--Timestamp---	Temp	Chill	HIndex	Humid	Dewpt	 Wind 	HiWind	WindDir	Rain 	Barom	Solar	 ET  	 UV 
--------------	----	-----	------	-----	-----	------	------	-------	-----	-----	-----	-----	----
20090611 00:00	13.9	13.9	13.9	71	8.8	2	8	135	0.0	1013.3	0	0.025	0.0
20090611 00:05	13.9	13.9	13.9	71	8.8	3	8	158	0.0	1013.4	0	0.000	0.0
20090611 00:10	14.0	14.0	14.0	71	8.8	3	6	158	0.0	1013.4	0	0.000	0.0
20090611 00:15	14.1	14.1	14.1	71	8.9	2	6	158	0.0	1013.4	0	0.000	0.0
20090611 00:20	14.1	14.1	14.1	70	8.7	3	10	158	0.0	1013.4	0	0.000	0.0
20090611 00:25	14.2	14.2	14.2	70	8.8	3	6	158	0.0	1013.1	0	0.000	0.0
20090611 00:30	14.2	14.2	14.2	70	8.8	5	10	135	0.0	1013.1	0	0.000	0.0
20090611 00:35	14.2	14.2	14.2	70	8.8	3	10	158	0.0	1013.3	0	0.000	0.0
20090611 00:40	14.3	14.3	14.3	69	8.7	5	10	158	0.0	1013.2	0	0.000	0.0
20090611 00:45	14.3	14.3	14.3	69	8.7	5	10	158	0.0	1013.1	0	0.000	0.0
20090611 00:50	14.4	14.4	14.4	70	9.0	3	8	158	0.0	1013.1	0	0.000	0.0
20090611 00:55	14.4	14.4	14.4	70	9.0	2	6	158	0.0	1013.0	0	0.000	0.0
20090611 01:00	14.4	14.4	14.4	70	9.0	3	6	158	0.0	1013.0	0	0.025	0.0
20090611 01:05	14.4	14.4	14.4	71	9.2	0	3	158	0.0	1013.1	0	0.000	0.0
20090611 01:10	14.3	14.3	14.3	72	9.4	0	5	158	0.0	1013.0	0	0.000	0.0
20090611 01:15	14.3	14.3	14.3	72	9.3	2	5	158	0.0	1012.8	0	0.000	0.0
20090611 01:20	14.2	14.2	14.2	73	9.4	2	6	158	0.0	1012.6	0	0.000	0.0
20090611 01:25	14.2	14.2	14.2	73	9.4	2	5	158	0.0	1012.6	0	0.000	0.0
20090611 01:30	14.2	14.2	14.2	73	9.4	2	6	158	0.0	1012.5	0	0.000	0.0
20090611 01:35	14.1	14.1	14.1	73	9.3	2	5	158	0.0	1012.5	0	0.000	0.0
20090611 01:40	14.1	14.1	14.1	72	9.1	2	5	158	0.0	1012.6	0	0.000	0.0
20090611 01:45	14.1	14.1	14.1	73	9.3	0	3	158	0.0	1012.5	0	0.000	0.0
20090611 01:50	14.2	14.2	14.2	73	9.4	3	6	158	0.0	1012.6	0	0.000	0.0
20090611 01:55	14.2	14.2	14.2	73	9.4	3	6	158	0.0	1012.5	0	0.000	0.0
20090611 02:00	14.2	14.2	14.2	73	9.4	3	6	158	0.0	1012.4	0	0.025	0.0
20090611 02:05	14.2	14.2	14.2	73	9.4	3	10	180	0.0	1012.1	0	0.000	0.0
20090611 02:10	14.3	14.3	14.3	73	9.5	3	6	180	0.0	1012.1	0	0.000	0.0
20090611 02:15	14.3	14.3	14.3	73	9.5	2	5	180	0.0	1012.0	0	0.000	0.0
20090611 02:20	14.3	14.3	14.3	73	9.5	3	8	180	0.0	1012.0	0	0.000	0.0
20090611 02:25	14.2	14.2	14.2	73	9.4	3	8	180	0.0	1012.0	0	0.000	0.0
20090611 02:30	14.2	14.2	14.2	74	9.7	3	8	180	0.0	1012.1	0	0.000	0.0
20090611 02:35	14.2	14.2	14.2	75	9.8	2	5	180	0.0	1011.9	0	0.000	0.0
20090611 02:40	14.1	14.1	14.1	75	9.7	2	5	180	0.0	1011.8	0	0.000	0.0
20090611 02:45	14.1	14.1	14.1	76	9.9	0	3	180	0.0	1011.9	0	0.000	0.0
20090611 02:50	14.0	14.0	14.0	76	9.8	2	5	180	0.0	1012.0	0	0.000	0.0
20090611 02:55	14.0	14.0	14.0	76	9.8	2	5	180	0.0	1011.9	0	0.000	0.0
20090611 03:00	13.9	13.9	13.9	77	9.9	3	8	180	0.0	1012.0	0	0.025	0.0
20090611 03:05	13.8	13.8	13.8	78	10.0	3	6	202	0.0	1011.9	0	0.000	0.0
20090611 03:10	13.7	13.7	13.7	79	10.1	5	8	202	0.0	1012.1	0	0.000	0.0
20090611 03:15	13.6	13.6	13.6	79	10.0	5	8	225	0.0	1012.3	0	0.000	0.0
20090611 03:20	13.5	13.5	13.5	80	10.1	5	10	225	0.0	1012.6	0	0.000	0.0
20090611 03:25	13.4	13.4	13.4	81	10.2	2	5	225	0.0	1012.5	0	0.000	0.0
20090611 03:30	13.4	13.4	13.4	81	10.2	0	2	225	0.2	1012.4	0	0.000	0.0
20090611 03:35	13.4	13.4	13.4	83	10.6	0	3	225	0.0	1012.2	0	0.000	0.0
20090611 03:40	13.3	13.3	13.3	84	10.6	0	3	225	0.0	1012.2	0	0.000	0.0
20090611 03:45	13.2	13.2	13.2	84	10.6	0	2	225	0.0	1012.1	0	0.000	0.0
20090611 03:50	13.1	13.1	13.1	85	10.6	0	0	-100000	0.0	1012.0	0	0.000	0.0
20090611 03:55	13.1	13.1	13.1	85	10.6	0	0	-100000	0.0	1012.1	0	0.000	0.0
20090611 04:00	13.0	13.0	13.0	86	10.7	0	5	225	0.0	1012.2	0	0.025	0.0
20090611 04:05	12.9	12.9	12.9	87	10.8	2	5	225	0.0	1012.2	0	0.000	0.0
20090611 04:10	12.9	12.9	12.9	87	10.8	3	8	225	0.0	1012.3	0	0.000	0.0
20090611 04:15	12.9	12.9	12.9	87	10.8	3	6	225	0.0	1012.4	0	0.000	0.0
20090611 04:20	12.8	12.8	12.8	87	10.7	2	6	225	0.0	1012.3	0	0.000	0.0
20090611 04:25	12.8	12.8	12.8	87	10.7	0	3	225	0.0	1011.9	0	0.000	0.0
20090611 04:30	12.8	12.8	12.8	87	10.7	2	5	225	0.0	1011.7	0	0.000	0.0
20090611 04:35	12.8	12.8	12.8	87	10.7	0	3	225	0.0	1011.7	0	0.000	0.0
20090611 04:40	12.8	12.8	12.8	88	10.9	2	5	225	0.0	1011.9	0	0.000	0.0
20090611 04:45	12.8	12.8	12.8	88	10.9	3	6	225	0.0	1012.1	0	0.000	0.0
20090611 04:50	12.9	12.9	12.9	88	10.9	5	8	225	0.0	1012.0	0	0.000	0.0
20090611 04:55	12.9	12.9	12.9	88	10.9	5	10	225	0.2	1012.2	0	0.000	0.0
20090611 05:00	12.9	12.9	12.9	88	10.9	3	8	225	0.2	1012.4	0	0.000	0.0
20090611 05:05	12.9	12.9	12.9	89	11.1	5	6	225	0.6	1012.3	0	0.000	0.0
20090611 05:10	12.9	12.9	12.9	89	11.1	5	8	225	0.2	1012.4	0	0.000	0.0
20090611 05:15	12.9	12.9	12.9	89	11.2	3	6	225	0.2	1012.5	0	0.000	0.0
20090611 05:20	12.9	12.9	12.9	90	11.3	3	8	225	0.2	1012.3	0	0.000	0.0
20090611 05:25	12.9	12.9	12.9	90	11.3	2	5	225	0.0	1012.4	0	0.000	0.0
20090611 05:30	12.9	12.9	12.9	90	11.3	2	6	225	0.2	1012.3	0	0.000	0.0
20090611 05:35	12.9	12.9	12.9	90	11.3	0	3	225	0.0	1012.4	0	0.000	0.0
20090611 05:40	12.9	12.9	12.9	90	11.3	0	3	225	0.0	1012.2	0	0.000	0.0
20090611 05:45	13.0	13.0	13.0	91	11.6	0	3	225	0.0	1012.2	0	0.000	0.0
20090611 05:50	13.1	13.1	13.1	91	11.6	0	2	225	0.0	1011.9	0	0.000	0.0
20090611 05:55	13.0	13.0	13.0	91	11.6	3	6	225	0.0	1011.6	5	0.000	0.0
20090611 06:00	13.0	13.0	13.0	91	11.6	0	5	225	0.0	1011.6	5	0.000	0.0
20090611 06:05	13.0	13.0	13.0	91	11.6	3	6	225	0.0	1011.4	11	0.000	0.0
20090611 06:10	13.0	13.0	13.0	91	11.6	2	6	225	0.0	1011.3	24	0.000	0.0
20090611 06:15	13.1	13.1	13.1	90	11.5	2	6	225	0.0	1011.1	32	0.000	0.0
20090611 06:20	13.1	13.1	13.1	91	11.6	3	5	225	0.0	1011.1	30	0.000	0.0
20090611 06:25	13.1	13.1	13.1	90	11.5	3	8	225	0.0	1010.9	30	0.000	0.0
20090611 06:30	13.1	13.1	13.1	90	11.5	2	6	225	0.0	1010.8	35	0.000	0.0
20090611 06:35	13.1	13.1	13.1	90	11.5	2	8	158	0.0	1010.9	46	0.000	0.0
20090611 06:40	13.1	13.1	13.1	90	11.5	3	6	158	0.0	1010.9	43	0.000	0.0
20090611 06:45	13.2	13.2	13.2	90	11.6	3	6	158	0.0	1010.8	59	0.000	0.0
20090611 06:50	13.2	13.2	13.2	90	11.6	3	6	158	0.0	1010.5	48	0.000	0.0
20090611 06:55	13.2	13.2	13.2	90	11.6	2	5	158	0.0	1010.6	10	0.000	0.0
20090611 07:00	13.2	13.2	13.2	90	11.6	5	14	315	0.0	1011.7	6	0.025	0.0
20090611 07:05	13.3	13.3	13.3	91	11.8	2	8	292	1.0	1011.6	29	0.000	0.0
20090611 07:10	13.3	13.3	13.3	90	11.7	5	18	292	0.0	1011.7	14	0.000	0.0
20090611 07:15	13.3	13.3	13.3	89	11.6	6	11	270	0.8	1011.6	36	0.000	0.0
20090611 07:20	13.4	13.4	13.4	92	12.1	5	10	248	0.0	1011.4	104	0.000	0.0
20090611 07:25	13.6	13.6	13.6	90	11.9	0	3	248	0.0	1011.3	120	0.000	0.0
20090611 07:30	13.7	13.7	13.7	90	12.1	2	8	248	0.0	1011.9	87	0.000	0.0
20090611 07:35	13.7	13.7	13.7	90	12.1	6	16	248	0.0	1011.9	87	0.000	0.0
20090611 07:40	13.7	13.7	13.7	90	12.1	6	13	202	0.0	1011.7	69	0.000	0.0
20090611 07:45	13.7	13.7	13.7	90	12.1	5	11	202	0.0	1011.8	71	0.000	0.0
20090611 07:50	13.8	13.8	13.8	90	12.2	8	16	180	0.0	1011.7	76	0.000	0.0
20090611 07:55	13.8	13.8	13.8	90	12.2	6	11	180	0.0	1011.7	80	0.000	0.0
20090611 08:00	13.8	13.8	13.8	88	11.8	6	11	180	0.0	1011.7	63	0.051	0.0
20090611 08:05	13.8	13.8	13.8	89	12.0	2	6	180	0.0	1011.6	69	0.000	0.1
20090611 08:10	13.9	13.9	13.9	89	12.2	3	8	180	0.0	1011.8	29	0.000	0.0
20090611 08:15	13.9	13.9	13.9	88	12.0	6	19	180	0.0	1012.0	41	0.000	0.0
20090611 08:20	14.0	14.0	14.0	87	11.9	10	16	225	0.0	1012.0	66	0.000	0.0
20090611 08:25	14.0	14.0	14.0	88	12.0	6	11	292	0.0	1012.0	54	0.000	0.0
20090611 08:30	14.0	14.0	14.0	88	12.0	5	10	225	0.0	1012.1	49	0.000	0.0
20090611 08:35	14.0	14.0	14.0	88	12.0	6	14	225	0.0	1012.3	53	0.000	0.0
20090611 08:40	14.0	14.0	14.0	88	12.0	8	14	202	0.0	1012.3	33	0.000	0.0
20090611 08:45	14.0	14.0	14.0	88	12.0	6	16	225	0.2	1012.5	18	0.000	0.0
20090611 08:50	14.1	14.1	14.1	88	12.1	10	16	225	0.0	1012.9	12	0.000	0.0
20090611 08:55	14.0	14.0	14.0	86	11.7	10	32	248	0.6	1012.9	15	0.000	0.0
20090611 09:00	13.9	13.9	13.9	85	11.5	16	31	270	0.0	1012.7	39	0.025	0.0
20090611 09:05	13.9	13.9	13.9	87	11.8	6	16	270	0.0	1012.9	70	0.000	0.2
20090611 09:10	14.0	14.0	14.0	86	11.7	6	21	248	0.0	1012.6	142	0.000	1.1
20090611 09:15	14.3	14.3	14.3	86	12.0	8	18	248	0.0	1012.6	227	0.000	1.5
20090611 09:20	14.7	14.7	14.7	86	12.3	10	18	225	0.0	1012.5	337	0.000	2.0
20090611 09:25	15.0	15.0	15.0	87	12.9	6	18	225	0.0	1012.7	488	0.000	2.3
20090611 09:30	15.5	15.5	15.5	86	13.2	10	16	225	0.0	1012.7	459	0.000	2.4
20090611 09:35	15.8	15.8	15.8	85	13.3	8	21	225	0.0	1012.7	423	0.000	2.5
20090611 09:40	16.2	16.2	16.2	84	13.5	11	21	248	0.0	1012.6	504	0.000	3.0
20090611 09:45	16.5	16.5	16.5	82	13.4	13	27	225	0.0	1012.4	595	0.000	3.2
20090611 09:50	16.8	16.8	16.8	80	13.3	16	26	225	0.0	1012.2	608	0.000	3.4
20090611 09:55	17.0	17.0	17.0	79	13.3	14	23	248	0.0	1012.3	567	0.000	3.5
20090611 10:00	17.2	17.2	17.2	76	12.9	18	37	248	0.2	1012.2	550	0.229	3.4
20090611 10:05	17.4	17.4	17.4	77	13.4	18	32	248	0.0	1012.3	677	0.000	4.0
20090611 10:10	17.6	17.6	17.6	75	13.1	21	39	270	0.0	1012.2	719	0.000	2.8
20090611 10:15	17.7	17.7	17.7	73	12.8	18	27	270	0.0	1012.2	209	0.000	3.9
20090611 10:20	18.0	18.0	18.0	70	12.4	19	32	270	0.0	1012.2	731	0.000	4.0
20090611 10:25	18.4	18.4	18.4	71	13.0	19	34	248	0.0	1012.1	846	0.000	4.9
20090611 10:30	18.5	18.5	18.5	68	12.5	24	40	270	0.0	1012.1	548	0.000	4.0
20090611 10:35	18.5	18.5	18.5	68	12.5	23	43	270	0.0	1012.2	967	0.000	3.0
20090611 10:40	18.2	18.2	18.2	67	12.0	23	35	270	0.0	1012.3	188	0.000	2.1
20090611 10:45	17.9	17.9	17.9	67	11.7	19	35	270	0.0	1012.5	216	0.000	2.3
20090611 10:50	17.8	17.8	17.8	69	12.0	19	35	270	0.0	1012.5	215	0.000	3.1
20090611 10:55	17.8	17.8	17.8	67	11.6	31	64	270	0.0	1012.5	294	0.000	3.0
20090611 11:00	17.8	17.8	17.8	67	11.6	23	39	270	0.0	1012.6	190	0.356	3.1
20090611 11:05	17.9	17.9	17.9	68	11.9	21	34	270	0.0	1012.6	266	0.000	4.2
20090611 11:10	18.3	18.3	18.3	66	11.8	26	48	270	0.0	1012.5	1067	0.000	4.7
20090611 11:15	18.4	18.4	18.4	65	11.7	26	53	270	0.0	1012.7	184	0.000	2.6
20090611 11:20	18.3	18.3	18.3	65	11.6	21	48	270	0.0	1012.7	169	0.000	3.2
20090611 11:25	18.3	18.3	18.3	63	11.2	27	48	270	0.0	1012.7	969	0.000	5.3
20090611 11:30	18.6	18.6	18.6	59	10.4	29	43	270	0.0	1013.0	671	0.000	4.9
20090611 11:35	18.6	18.6	18.6	58	10.1	29	53	270	0.0	1013.0	375	0.000	5.5
20090611 11:40	18.8	18.8	18.8	58	10.3	31	50	270	0.0	1012.7	898	0.000	6.9
20090611 11:45	18.9	18.9	18.9	57	10.2	35	53	270	0.0	1012.7	885	0.000	7.0
20090611 11:50	19.1	19.1	19.1	56	10.1	29	45	270	0.0	1012.8	916	0.000	6.6
20090611 11:55	19.3	19.3	19.3	55	10.0	29	55	270	0.0	1012.5	904	0.000	6.4
20090611 12:00	19.5	19.5	19.5	55	10.2	27	47	270	0.0	1012.6	885	0.508	7.3
20090611 12:05	19.6	19.6	19.6	54	10.0	31	47	270	0.0	1012.5	891	0.000	7.3
20090611 12:10	19.8	19.8	19.8	57	11.1	21	39	270	0.0	1012.4	908	0.000	7.4
20090611 12:15	19.9	19.9	19.9	52	9.8	24	50	248	0.0	1012.6	712	0.000	5.7
20090611 12:20	19.7	19.7	19.7	50	8.9	31	71	270	0.0	1012.7	224	0.000	4.8
20090611 12:25	19.5	19.5	19.5	50	8.8	29	53	270	0.0	1012.9	182	0.000	5.4
20090611 12:30	19.8	19.8	19.8	50	9.1	26	53	270	0.0	1012.6	579	0.000	6.0
20090611 12:35	19.6	19.6	19.6	49	8.6	27	51	270	0.0	1012.9	449	0.000	4.4
20090611 12:40	19.5	19.5	19.5	55	10.2	23	40	292	0.0	1013.0	266	0.000	4.8
20090611 12:45	18.8	18.8	18.8	59	10.6	14	26	315	0.0	1013.0	235	0.000	2.5
20090611 12:50	18.4	18.4	18.4	62	11.0	13	23	292	0.0	1013.2	608	0.000	6.0
20090611 12:55	18.6	18.6	18.6	60	10.6	16	31	315	0.0	1013.2	302	0.000	4.7
20090611 13:00	18.6	18.6	18.6	61	10.9	16	31	292	0.0	1013.2	367	0.432	3.6
20090611 13:05	18.4	18.4	18.4	60	10.5	14	24	292	0.0	1013.2	226	0.000	2.7
20090611 13:10	18.2	18.2	18.2	60	10.3	14	32	292	0.0	1013.2	209	0.000	2.5
20090611 13:15	18.3	18.3	18.3	59	10.2	19	35	292	0.0	1013.4	319	0.000	5.5
20090611 13:20	18.8	18.8	18.8	61	11.1	18	27	292	0.0	1013.1	392	0.000	6.0
20090611 13:25	19.2	19.2	19.2	61	11.5	18	32	292	0.0	1012.9	1087	0.000	8.2
20090611 13:30	19.7	19.7	19.7	58	11.2	18	31	292	0.0	1013.0	1130	0.000	8.2
20090611 13:35	20.1	20.1	20.1	57	11.3	18	32	315	0.0	1013.1	561	0.000	4.1
20090611 13:40	19.5	19.5	19.5	59	11.3	19	34	292	0.0	1013.2	269	0.000	3.4
20090611 13:45	19.1	19.1	19.1	60	11.2	16	24	292	0.0	1013.3	268	0.000	3.1
20090611 13:50	19.1	19.1	19.1	59	10.9	16	31	292	0.0	1013.3	318	0.000	3.9
20090611 13:55	19.0	19.0	19.0	57	10.3	23	37	292	0.0	1013.5	280	0.000	2.9
20090611 14:00	18.8	18.8	18.8	58	10.3	24	37	315	0.0	1013.8	257	0.406	2.7
20090611 14:05	17.7	17.7	17.7	57	9.0	29	47	315	0.0	1014.1	173	0.000	2.1
20090611 14:10	17.0	17.0	17.0	60	9.2	26	43	315	0.0	1014.1	237	0.000	5.3
20090611 14:15	17.3	17.3	17.3	60	9.5	27	47	292	0.0	1014.1	831	0.000	7.4
20090611 14:20	17.9	17.9	17.9	62	10.6	24	47	292	0.0	1014.3	922	0.000	7.3
20090611 14:25	18.2	18.2	18.2	60	10.3	29	50	292	0.0	1014.3	902	0.000	7.1
20090611 14:30	18.3	18.3	18.3	59	10.2	27	42	315	0.0	1014.4	945	0.000	6.6
20090611 14:35	18.2	18.2	18.2	60	10.3	23	39	292	0.0	1014.5	348	0.000	4.7
20090611 14:40	18.4	18.4	18.4	60	10.5	26	45	292	0.0	1014.5	1079	0.000	6.7
20090611 14:45	18.6	18.6	18.6	59	10.4	23	42	292	0.0	1014.5	992	0.000	6.4
20090611 14:50	18.8	18.8	18.8	56	9.8	26	45	292	0.0	1014.7	878	0.000	6.7
20090611 14:55	18.9	18.9	18.9	53	9.1	27	50	292	0.0	1014.9	864	0.000	6.5
20090611 15:00	18.8	18.8	18.8	55	9.6	29	47	292	0.0	1015.0	852	0.559	6.4
20090611 15:05	18.8	18.8	18.8	56	9.9	26	40	292	0.0	1015.0	892	0.000	5.9
20090611 15:10	18.7	18.7	18.7	55	9.5	29	47	315	0.0	1015.2	842	0.000	6.1
20090611 15:15	18.6	18.6	18.6	54	9.1	26	50	292	0.0	1015.3	826	0.000	6.0
20090611 15:20	18.7	18.7	18.7	54	9.2	26	45	292	0.0	1015.1	815	0.000	5.8
20090611 15:25	18.7	18.7	18.7	54	9.2	24	40	292	0.0	1015.2	808	0.000	5.7
20090611 15:30	18.6	18.6	18.6	52	8.6	29	45	292	0.0	1015.2	801	0.000	5.5
20090611 15:35	18.7	18.7	18.7	51	8.3	31	50	292	0.0	1015.5	791	0.000	5.1
20090611 15:40	18.6	18.6	18.6	52	8.6	31	53	292	0.0	1015.2	786	0.000	5.3
20090611 15:45	18.8	18.8	18.8	54	9.3	24	47	292	0.0	1015.2	772	0.000	5.2
20090611 15:50	19.2	19.2	19.2	53	9.4	26	53	292	0.0	1015.2	782	0.000	5.0
20090611 15:55	19.0	19.0	19.0	52	8.9	31	51	292	0.0	1015.3	772	0.000	4.9
20090611 16:00	19.1	19.1	19.1	52	9.0	27	53	292	0.0	1015.1	771	0.610	4.9
20090611 16:05	19.2	19.2	19.2	52	9.1	27	45	292	0.0	1015.2	764	0.000	4.8
20090611 16:10	19.3	19.3	19.3	51	8.9	24	53	292	0.0	1015.0	784	0.000	4.6
20090611 16:15	19.4	19.4	19.4	51	9.0	27	47	292	0.0	1015.1	864	0.000	4.2
20090611 16:20	18.8	18.8	18.8	53	9.0	29	47	315	0.0	1015.5	663	0.000	3.8
20090611 16:25	18.2	18.2	18.2	56	9.3	27	45	315	0.0	1015.5	701	0.000	4.1
20090611 16:30	18.1	18.1	18.1	55	8.9	23	40	315	0.0	1015.8	679	0.000	3.9
20090611 16:35	18.2	18.2	18.2	52	8.2	23	39	292	0.0	1015.6	667	0.000	3.8
20090611 16:40	18.3	18.3	18.3	53	8.6	26	40	292	0.0	1015.6	661	0.000	3.4
20090611 16:45	18.5	18.5	18.5	49	7.6	27	42	292	0.0	1015.6	647	0.000	3.4
20090611 16:50	18.6	18.6	18.6	49	7.6	29	47	292	0.0	1015.7	660	0.000	3.4
20090611 16:55	18.6	18.6	18.6	50	8.0	27	45	292	0.0	1015.6	646	0.000	3.2
20090611 17:00	18.5	18.5	18.5	47	7.0	34	48	292	0.0	1015.8	613	0.559	3.1
20090611 17:05	18.4	18.4	18.4	46	6.6	31	47	292	0.0	1015.8	602	0.000	2.9
20090611 17:10	18.6	18.6	18.6	44	6.1	29	47	270	0.0	1015.9	590	0.000	2.8
20090611 17:15	18.7	18.7	18.7	47	7.1	23	42	292	0.0	1015.9	581	0.000	2.7
20090611 17:20	18.8	18.8	18.8	48	7.6	24	39	292	0.0	1016.0	592	0.000	2.6
20090611 17:25	18.9	18.9	18.9	48	7.6	24	35	292	0.0	1016.1	586	0.000	2.4
20090611 17:30	18.8	18.8	18.8	48	7.5	24	42	315	0.0	1016.1	579	0.000	2.1
20090611 17:35	18.6	18.6	18.6	50	8.0	26	47	315	0.0	1016.1	600	0.000	2.2
20090611 17:40	18.2	18.2	18.2	51	7.9	27	42	315	0.0	1016.2	514	0.000	2.1
20090611 17:45	17.8	17.8	17.8	50	7.3	23	47	315	0.0	1016.3	494	0.000	1.9
20090611 17:50	17.7	17.7	17.7	50	7.1	23	39	315	0.0	1016.5	482	0.000	1.9
20090611 17:55	17.8	17.8	17.8	49	6.9	21	43	315	0.0	1016.4	467	0.000	1.7
20090611 18:00	17.8	17.8	17.8	49	6.9	23	40	315	0.0	1016.3	453	0.457	1.6
20090611 18:05	17.8	17.8	17.8	48	6.7	24	39	292	0.0	1016.3	440	0.000	1.5
20090611 18:10	17.8	17.8	17.8	49	6.9	24	42	315	0.0	1016.3	424	0.000	1.4
20090611 18:15	17.8	17.8	17.8	49	6.9	24	35	292	0.0	1016.4	411	0.000	1.3
20090611 18:20	17.8	17.8	17.8	50	7.3	19	37	292	0.0	1016.3	394	0.000	1.3
20090611 18:25	17.9	17.9	17.9	49	7.0	23	35	292	0.0	1016.2	383	0.000	1.2
20090611 18:30	18.1	18.1	18.1	51	7.8	18	27	292	0.0	1016.3	369	0.000	1.1
20090611 18:35	18.1	18.1	18.1	50	7.5	18	27	292	0.0	1016.3	374	0.000	0.9
20090611 18:40	18.0	18.0	18.0	51	7.7	18	31	315	0.0	1016.4	355	0.000	0.9
20090611 18:45	17.8	17.8	17.8	51	7.5	19	34	315	0.0	1016.5	297	0.000	0.8
20090611 18:50	17.5	17.5	17.5	52	7.5	24	42	315	0.0	1016.4	337	0.000	0.8
20090611 18:55	17.4	17.4	17.4	54	8.0	16	27	315	0.0	1016.7	305	0.000	0.7
20090611 19:00	17.4	17.4	17.4	52	7.5	23	40	315	0.0	1016.7	289	0.330	0.7
20090611 19:05	17.3	17.3	17.3	53	7.7	19	35	315	0.0	1016.7	274	0.000	0.6
20090611 19:10	17.2	17.2	17.2	54	7.8	23	35	315	0.0	1016.7	260	0.000	0.6
20090611 19:15	16.9	16.9	16.9	56	8.1	19	35	315	0.0	1016.7	244	0.000	0.5
20090611 19:20	16.6	16.6	16.6	57	8.1	18	34	315	0.0	1016.9	199	0.000	0.4
20090611 19:25	16.3	16.3	16.3	56	7.5	16	31	315	0.0	1016.9	55	0.000	0.0
20090611 19:30	16.2	16.2	16.2	55	7.2	16	31	315	0.0	1017.0	53	0.000	0.0
20090611 19:35	16.1	16.1	16.1	55	7.1	13	27	315	0.0	1017.0	51	0.000	0.0
20090611 19:40	15.9	15.9	15.9	52	6.1	19	32	315	0.0	1017.2	52	0.000	0.0
20090611 19:45	15.8	15.8	15.8	52	6.0	19	42	315	0.0	1017.1	71	0.000	0.0
20090611 19:50	15.8	15.8	15.8	53	6.3	19	32	292	0.0	1017.1	62	0.000	0.0
20090611 19:55	15.7	15.7	15.7	52	5.9	16	31	315	0.0	1017.4	46	0.000	0.0
20090611 20:00	15.6	15.6	15.6	53	6.0	18	29	292	0.0	1017.5	41	0.178	0.0
20090611 20:05	15.4	15.4	15.4	53	5.9	18	31	292	0.0	1017.5	39	0.000	0.0
20090611 20:10	15.4	15.4	15.4	54	6.1	13	23	292	0.0	1017.5	36	0.000	0.0
20090611 20:15	15.3	15.3	15.3	54	6.0	13	27	292	0.0	1017.5	35	0.000	0.0
20090611 20:20	15.2	15.2	15.2	55	6.2	10	19	292	0.0	1017.6	33	0.000	0.0
20090611 20:25	15.1	15.1	15.1	56	6.3	11	26	292	0.0	1017.8	30	0.000	0.0
20090611 20:30	15.0	15.0	15.0	57	6.5	8	21	292	0.0	1017.8	27	0.000	0.0
20090611 20:35	15.0	15.0	15.0	57	6.5	16	31	315	0.0	1017.8	23	0.000	0.0
20090611 20:40	15.0	15.0	15.0	57	6.5	13	23	315	0.0	1017.8	20	0.000	0.0
20090611 20:45	14.8	14.8	14.8	59	6.9	10	19	315	0.0	1017.8	15	0.000	0.0
20090611 20:50	14.7	14.7	14.7	59	6.7	10	23	292	0.0	1018.0	12	0.000	0.0
20090611 20:55	14.6	14.6	14.6	60	6.9	6	11	315	0.0	1018.1	11	0.000	0.0
20090611 21:00	14.4	14.4	14.4	61	7.0	5	14	292	0.0	1018.1	8	0.076	0.0
20090611 21:05	14.2	14.2	14.2	62	7.0	6	14	292	0.0	1017.7	6	0.000	0.0
20090611 21:10	14.1	14.1	14.1	62	6.9	6	13	292	0.0	1017.7	3	0.000	0.0
20090611 21:15	13.9	13.9	13.9	62	6.8	5	11	315	0.0	1017.8	0	0.000	0.0
20090611 21:20	13.8	13.8	13.8	62	6.7	6	19	292	0.0	1018.0	0	0.000	0.0
20090611 21:25	13.7	13.7	13.7	63	6.8	5	11	315	0.0	1018.0	0	0.000	0.0
20090611 21:30	13.7	13.7	13.7	63	6.8	3	8	292	0.0	1018.1	0	0.000	0.0
20090611 21:35	13.5	13.5	13.5	64	6.8	5	11	315	0.0	1018.3	0	0.000	0.0
20090611 21:40	13.3	13.3	13.3	65	6.8	6	8	292	0.0	1018.2	0	0.000	0.0
20090611 21:45	13.1	13.1	13.1	65	6.7	6	11	292	0.0	1018.3	0	0.000	0.0
20090611 21:50	13.1	13.1	13.1	65	6.6	5	10	292	0.0	1018.3	0	0.000	0.0
20090611 21:55	12.9	12.9	12.9	65	6.5	5	10	292	0.0	1018.3	0	0.000	0.0
20090611 22:00	12.8	12.8	12.8	66	6.6	5	8	292	0.0	1018.5	0	0.025	0.0
20090611 22:05	12.8	12.8	12.8	66	6.6	6	14	270	0.0	1018.6	0	0.000	0.0
20090611 22:10	12.8	12.8	12.8	67	6.8	5	8	270	0.0	1018.5	0	0.000	0.0
20090611 22:15	12.7	12.7	12.7	67	6.7	5	8	270	0.0	1018.6	0	0.000	0.0
20090611 22:20	12.5	12.5	12.5	67	6.5	5	8	270	0.0	1018.6	0	0.000	0.0
20090611 22:25	12.4	12.4	12.4	68	6.7	5	10	270	0.0	1018.6	0	0.000	0.0
20090611 22:30	12.4	12.4	12.4	68	6.7	5	8	270	0.0	1018.6	0	0.000	0.0
20090611 22:35	12.4	12.4	12.4	68	6.6	3	6	270	0.0	1018.7	0	0.000	0.0
20090611 22:40	12.3	12.3	12.3	68	6.6	3	8	270	0.0	1018.7	0	0.000	0.0
20090611 22:45	12.2	12.2	12.2	68	6.5	5	8	270	0.0	1018.7	0	0.000	0.0
20090611 22:50	12.2	12.2	12.2	69	6.7	5	10	270	0.0	1018.6	0	0.000	0.0
20090611 22:55	12.2	12.2	12.2	69	6.6	5	11	270	0.0	1018.7	0	0.000	0.0
20090611 23:00	12.1	12.1	12.1	69	6.6	6	8	270	0.0	1018.7	0	0.025	0.0
20090611 23:05	12.1	12.1	12.1	69	6.5	6	10	270	0.0	1018.6	0	0.000	0.0
20090611 23:10	12.0	12.0	12.0	70	6.7	6	10	270	0.0	1018.6	0	0.000	0.0
20090611 23:15	11.9	11.9	11.9	70	6.6	5	8	270	0.0	1018.7	0	0.000	0.0
20090611 23:20	11.9	11.9	11.9	70	6.6	3	6	270	0.0	1018.7	0	0.000	0.0
20090611 23:25	11.8	11.8	11.8	71	6.7	0	3	270	0.0	1018.8	0	0.000	0.0
20090611 23:30	11.7	11.7	11.7	71	6.6	0	3	270	0.0	1018.8	0	0.000	0.0
20090611 23:35	11.6	11.6	11.6	72	6.7	0	2	270	0.0	1018.8	0	0.000	0.0
20090611 23:40	11.4	11.4	11.4	72	6.6	2	5	270	0.0	1018.9	0	0.000	0.0
20090611 23:45	11.4	11.4	11.4	72	6.5	2	5	270	0.0	1018.9	0	0.000	0.0
20090611 23:50	11.3	11.3	11.3	72	6.5	0	3	270	0.0	1019.0	0	0.000	0.0
20090611 23:55	11.3	11.3	11.3	73	6.7	0	2	270	0.0	1019.1	0	0.000	0.0



Please note the license to use and transfer of this data:
http://creativecommons.org/licenses/by-nc-sa/3.0/deed.en

Bitte beachten sie die Lizenz zur Verwertung und Weitergabe der Daten:
http://creativecommons.org/licenses/by-nc-sa/3.0/deed.de

zurück zur Übersicht der Archivdaten (Monats und Tagesdaten)

Cookies helfen bei der Bereitstellung von Inhalten. Durch die Nutzung dieser Seiten erklärst du dich damit einverstanden, dass Cookies auf deinem Rechner gespeichert werden. Weitere Information